Vina Del Mar, Chile

3:49 AM CLST on October 23, 2014 (GMT -0300)
Arturo Merino Benitez International | Change Station
CLOSE
Current Station
Airport
Location: Santiago,
Elevation: 1562 ft
Nearby Weather Stations

Elev 1562 ft 33.39 °S, 70.79 °W | Updated 49 minutes ago

Clear
Clear
63 °F
Feels Like 63 °F
N
6
Wind Variable Wind from SSE

Today
High -- | Low -- °F
--% Chance of Precip.
Yesterday
High -- | Low -- °F
Precip. -- in
6:55 AM 8:04 PM
Waning Crescent, 0% visible
Pressure 29.98 in
Visibility -9999.0 miles
Clouds
Dew Point 52 °F
Humidity 68%
Rainfall 0.00 in
Snow Depth Not available.
UV Not available.
Pollen Not available.
Air Quality Not available.
Flu Activity Not available.
METAR SCEL 230600Z 15005KT 110V170 CAVOK 17/11 Q1015 NOSIG

More Conditions Fewer Conditions

Pressure 29.98 in
Visibility -9999.0 miles
Clouds
Dew Point 52 °F
Humidity 68%
Rainfall 0.00 in
Snow Depth Not available.
UV Not available.
Pollen Not available.
Air Quality Not available.
Flu Activity Not available.
METAR SCEL 230600Z 15005KT 110V170 CAVOK 17/11 Q1015 NOSIG

More Conditions Fewer Conditions

10-Day Weather Forecast

Almanac

Astronomy

Oct. 23, 2014 Rise Set
Actual Time 6:55 AM CLST 8:04 PM CLST
Civil Twilight 6:30 AM CLST 8:30 PM CLST
Nautical Twilight 5:59 AM CLST 9:01 PM CLST
Astronomical Twilight 5:28 AM CLST 9:32 PM CLST
Moon 6:45 AM CLST 8:01 PM CLST
Length of Visible Light 14h 00m
Length of Day
13h 08m
Tomorrow will be 1m 56s longer.
Waning Crescent, 0% of the Moon is Illuminated
Today
Waning Crescent
Oct 23
New
Oct 30
First Quarter
Nov 6
Full
Nov 14
Last Quarter

Yesterday's Extremes

Country Highs Country Lows

Community

WunderPhotos

Upload Photos

1,764,194 photos uploaded!

Nearby

Snow Depth

Not available.

Earthquake Activity

City Distance Mag. Time & Date
No recent earthquake activity has been reported nearby.
Minimum magnitude displayed is 2.5.

Coastal Water Temperatures

Place Temperature
No Stations Reporting

Nearby Weather Stations